sensor_id;sensor_type;location;lat;lon;timestamp;P1;durP1;ratioP1;P2;durP2;ratioP2
26375;SDS011;30544;42.196;24.336;2022-11-18T00:01:59;603.00;;;117.05;;
26375;SDS011;30544;42.196;24.336;2022-11-18T00:04:26;425.48;;;99.85;;
26375;SDS011;30544;42.196;24.336;2022-11-18T00:06:53;886.60;;;145.40;;
26375;SDS011;30544;42.196;24.336;2022-11-18T00:09:20;291.80;;;93.13;;
26375;SDS011;30544;42.196;24.336;2022-11-18T00:11:46;514.88;;;111.50;;
26375;SDS011;30544;42.196;24.336;2022-11-18T00:14:40;833.85;;;146.63;;
26375;SDS011;30544;42.196;24.336;2022-11-18T00:17:07;653.95;;;131.65;;
26375;SDS011;30544;42.196;24.336;2022-11-18T00:19:34;625.97;;;122.72;;
26375;SDS011;30544;42.196;24.336;2022-11-18T00:22:03;292.80;;;84.05;;
26375;SDS011;30544;42.196;24.336;2022-11-18T00:24:30;835.35;;;155.50;;
26375;SDS011;30544;42.196;24.336;2022-11-18T00:26:57;296.67;;;83.75;;
26375;SDS011;30544;42.196;24.336;2022-11-18T00:29:24;470.45;;;115.63;;
26375;SDS011;30544;42.196;24.336;2022-11-18T00:31:53;815.50;;;158.20;;
26375;SDS011;30544;42.196;24.336;2022-11-18T00:34:21;263.83;;;83.28;;
26375;SDS011;30544;42.196;24.336;2022-11-18T00:36:48;252.00;;;87.55;;
26375;SDS011;30544;42.196;24.336;2022-11-18T00:39:15;581.72;;;129.57;;
26375;SDS011;30544;42.196;24.336;2022-11-18T00:41:43;436.33;;;97.65;;
26375;SDS011;30544;42.196;24.336;2022-11-18T00:44:28;422.40;;;103.70;;
26375;SDS011;30544;42.196;24.336;2022-11-18T00:46:56;973.08;;;160.85;;
26375;SDS011;30544;42.196;24.336;2022-11-18T00:49:23;555.55;;;106.30;;
26375;SDS011;30544;42.196;24.336;2022-11-18T00:51:50;638.17;;;117.68;;
26375;SDS011;30544;42.196;24.336;2022-11-18T00:54:17;892.10;;;151.38;;
26375;SDS011;30544;42.196;24.336;2022-11-18T00:56:44;500.77;;;105.60;;
26375;SDS011;30544;42.196;24.336;2022-11-18T00:59:11;134.50;;;60.40;;
26375;SDS011;30544;42.196;24.336;2022-11-18T01:01:38;246.70;;;68.03;;
26375;SDS011;30544;42.196;24.336;2022-11-18T01:04:06;743.22;;;133.68;;
26375;SDS011;30544;42.196;24.336;2022-11-18T01:06:32;451.02;;;87.25;;
26375;SDS011;30544;42.196;24.336;2022-11-18T01:08:59;300.45;;;76.10;;
26375;SDS011;30544;42.196;24.336;2022-11-18T01:11:26;565.83;;;110.10;;
26375;SDS011;30544;42.196;24.336;2022-11-18T01:14:10;322.60;;;78.15;;
26375;SDS011;30544;42.196;24.336;2022-11-18T01:16:37;136.40;;;59.67;;
26375;SDS011;30544;42.196;24.336;2022-11-18T01:19:04;822.58;;;137.32;;
26375;SDS011;30544;42.196;24.336;2022-11-18T01:21:32;365.35;;;84.15;;
26375;SDS011;30544;42.196;24.336;2022-11-18T01:23:58;446.98;;;98.07;;
26375;SDS011;30544;42.196;24.336;2022-11-18T01:26:25;986.40;;;151.70;;
26375;SDS011;30544;42.196;24.336;2022-11-18T01:28:53;110.32;;;50.88;;
26375;SDS011;30544;42.196;24.336;2022-11-18T01:31:21;585.45;;;115.75;;
26375;SDS011;30544;42.196;24.336;2022-11-18T01:33:48;130.02;;;53.88;;
26375;SDS011;30544;42.196;24.336;2022-11-18T01:36:17;176.48;;;65.80;;
26375;SDS011;30544;42.196;24.336;2022-11-18T01:38:46;232.57;;;83.43;;
26375;SDS011;30544;42.196;24.336;2022-11-18T01:41:13;193.70;;;75.25;;
26375;SDS011;30544;42.196;24.336;2022-11-18T01:43:47;235.57;;;86.18;;
26375;SDS011;30544;42.196;24.336;2022-11-18T01:46:16;155.02;;;76.18;;
26375;SDS011;30544;42.196;24.336;2022-11-18T01:48:43;114.13;;;55.35;;
26375;SDS011;30544;42.196;24.336;2022-11-18T01:51:14;293.90;;;86.22;;
26375;SDS011;30544;42.196;24.336;2022-11-18T01:53:45;327.55;;;98.28;;
26375;SDS011;30544;42.196;24.336;2022-11-18T01:56:17;124.75;;;55.17;;
26375;SDS011;30544;42.196;24.336;2022-11-18T01:58:48;303.77;;;81.20;;
26375;SDS011;30544;42.196;24.336;2022-11-18T02:01:19;317.73;;;79.25;;
26375;SDS011;30544;42.196;24.336;2022-11-18T02:03:46;418.40;;;112.75;;
26375;SDS011;30544;42.196;24.336;2022-11-18T02:06:14;413.58;;;98.15;;
26375;SDS011;30544;42.196;24.336;2022-11-18T02:08:42;204.25;;;93.90;;
26375;SDS011;30544;42.196;24.336;2022-11-18T02:11:11;184.85;;;86.82;;
26375;SDS011;30544;42.196;24.336;2022-11-18T02:13:53;151.27;;;80.30;;
26375;SDS011;30544;42.196;24.336;2022-11-18T02:16:20;84.07;;;53.83;;
26375;SDS011;30544;42.196;24.336;2022-11-18T02:18:59;177.00;;;82.72;;
26375;SDS011;30544;42.196;24.336;2022-11-18T02:21:33;133.82;;;72.25;;
26375;SDS011;30544;42.196;24.336;2022-11-18T02:24:25;115.75;;;63.40;;
26375;SDS011;30544;42.196;24.336;2022-11-18T02:30:14;108.75;;;59.65;;
26375;SDS011;30544;42.196;24.336;2022-11-18T02:32:43;107.68;;;63.65;;
26375;SDS011;30544;42.196;24.336;2022-11-18T02:35:17;100.05;;;58.15;;
26375;SDS011;30544;42.196;24.336;2022-11-18T02:37:49;151.25;;;78.97;;
26375;SDS011;30544;42.196;24.336;2022-11-18T02:40:22;83.13;;;54.70;;
26375;SDS011;30544;42.196;24.336;2022-11-18T02:42:55;119.40;;;63.75;;
26375;SDS011;30544;42.196;24.336;2022-11-18T02:45:26;105.10;;;64.05;;
26375;SDS011;30544;42.196;24.336;2022-11-18T02:47:55;96.15;;;57.15;;
26375;SDS011;30544;42.196;24.336;2022-11-18T02:50:27;132.02;;;72.93;;
26375;SDS011;30544;42.196;24.336;2022-11-18T02:52:56;88.93;;;54.95;;
26375;SDS011;30544;42.196;24.336;2022-11-18T02:55:26;74.47;;;45.95;;
26375;SDS011;30544;42.196;24.336;2022-11-18T02:57:55;81.10;;;47.28;;
26375;SDS011;30544;42.196;24.336;2022-11-18T03:00:23;111.22;;;58.30;;
26375;SDS011;30544;42.196;24.336;2022-11-18T03:02:51;70.82;;;42.78;;
26375;SDS011;30544;42.196;24.336;2022-11-18T03:05:20;96.78;;;53.63;;
26375;SDS011;30544;42.196;24.336;2022-11-18T03:07:55;93.20;;;51.13;;
26375;SDS011;30544;42.196;24.336;2022-11-18T03:10:31;72.35;;;44.60;;
26375;SDS011;30544;42.196;24.336;2022-11-18T03:13:07;68.00;;;42.03;;
26375;SDS011;30544;42.196;24.336;2022-11-18T03:15:41;70.03;;;42.83;;
26375;SDS011;30544;42.196;24.336;2022-11-18T03:18:17;79.00;;;47.08;;
26375;SDS011;30544;42.196;24.336;2022-11-18T03:20:51;88.43;;;49.25;;
26375;SDS011;30544;42.196;24.336;2022-11-18T03:23:23;88.60;;;50.92;;
26375;SDS011;30544;42.196;24.336;2022-11-18T03:25:57;66.60;;;42.65;;
26375;SDS011;30544;42.196;24.336;2022-11-18T03:28:29;69.00;;;44.15;;
26375;SDS011;30544;42.196;24.336;2022-11-18T03:31:02;95.40;;;58.70;;
26375;SDS011;30544;42.196;24.336;2022-11-18T03:33:35;80.78;;;52.97;;
26375;SDS011;30544;42.196;24.336;2022-11-18T03:36:05;94.53;;;59.88;;
26375;SDS011;30544;42.196;24.336;2022-11-18T03:38:35;92.82;;;62.95;;
26375;SDS011;30544;42.196;24.336;2022-11-18T03:41:06;83.57;;;55.33;;
26375;SDS011;30544;42.196;24.336;2022-11-18T03:43:36;69.85;;;46.63;;
26375;SDS011;30544;42.196;24.336;2022-11-18T03:46:06;104.05;;;63.70;;
26375;SDS011;30544;42.196;24.336;2022-11-18T03:48:40;85.75;;;52.38;;
26375;SDS011;30544;42.196;24.336;2022-11-18T03:51:12;90.27;;;57.80;;
26375;SDS011;30544;42.196;24.336;2022-11-18T03:53:44;109.07;;;69.25;;
26375;SDS011;30544;42.196;24.336;2022-11-18T03:56:17;83.25;;;54.60;;
26375;SDS011;30544;42.196;24.336;2022-11-18T03:58:48;101.18;;;63.10;;
26375;SDS011;30544;42.196;24.336;2022-11-18T04:01:20;103.18;;;64.50;;
26375;SDS011;30544;42.196;24.336;2022-11-18T04:03:53;101.05;;;63.10;;
26375;SDS011;30544;42.196;24.336;2022-11-18T04:06:21;92.55;;;54.20;;
26375;SDS011;30544;42.196;24.336;2022-11-18T04:08:55;100.38;;;58.78;;
26375;SDS011;30544;42.196;24.336;2022-11-18T04:11:27;87.85;;;50.90;;
26375;SDS011;30544;42.196;24.336;2022-11-18T04:14:16;126.45;;;70.82;;
26375;SDS011;30544;42.196;24.336;2022-11-18T04:16:49;104.72;;;54.63;;
26375;SDS011;30544;42.196;24.336;2022-11-18T04:19:18;214.45;;;87.72;;
26375;SDS011;30544;42.196;24.336;2022-11-18T04:21:45;180.65;;;76.70;;
26375;SDS011;30544;42.196;24.336;2022-11-18T04:24:13;109.72;;;53.55;;
26375;SDS011;30544;42.196;24.336;2022-11-18T04:26:40;130.20;;;69.35;;
26375;SDS011;30544;42.196;24.336;2022-11-18T04:29:07;71.45;;;44.63;;
26375;SDS011;30544;42.196;24.336;2022-11-18T04:31:34;190.25;;;80.68;;
26375;SDS011;30544;42.196;24.336;2022-11-18T04:34:00;147.75;;;65.00;;
26375;SDS011;30544;42.196;24.336;2022-11-18T04:36:31;115.28;;;60.25;;
26375;SDS011;30544;42.196;24.336;2022-11-18T04:38:57;142.25;;;69.07;;
26375;SDS011;30544;42.196;24.336;2022-11-18T04:41:24;190.73;;;79.55;;
26375;SDS011;30544;42.196;24.336;2022-11-18T04:44:11;102.03;;;61.17;;
26375;SDS011;30544;42.196;24.336;2022-11-18T04:46:41;115.88;;;66.05;;
26375;SDS011;30544;42.196;24.336;2022-11-18T04:49:09;73.57;;;48.03;;
26375;SDS011;30544;42.196;24.336;2022-11-18T04:51:38;101.05;;;59.03;;
26375;SDS011;30544;42.196;24.336;2022-11-18T04:54:05;71.32;;;46.50;;
26375;SDS011;30544;42.196;24.336;2022-11-18T04:56:33;78.80;;;51.53;;
26375;SDS011;30544;42.196;24.336;2022-11-18T04:59:00;127.72;;;72.30;;
26375;SDS011;30544;42.196;24.336;2022-11-18T05:01:29;96.65;;;59.15;;
26375;SDS011;30544;42.196;24.336;2022-11-18T05:03:58;96.30;;;63.55;;
26375;SDS011;30544;42.196;24.336;2022-11-18T05:06:25;87.43;;;63.13;;
26375;SDS011;30544;42.196;24.336;2022-11-18T05:08:53;300.70;;;94.47;;
26375;SDS011;30544;42.196;24.336;2022-11-18T05:11:22;264.55;;;80.43;;
26375;SDS011;30544;42.196;24.336;2022-11-18T05:14:06;596.65;;;152.82;;
26375;SDS011;30544;42.196;24.336;2022-11-18T05:16:34;408.33;;;118.78;;
26375;SDS011;30544;42.196;24.336;2022-11-18T05:19:01;315.38;;;97.97;;
26375;SDS011;30544;42.196;24.336;2022-11-18T05:21:30;493.95;;;127.78;;
26375;SDS011;30544;42.196;24.336;2022-11-18T05:23:58;445.58;;;132.13;;
26375;SDS011;30544;42.196;24.336;2022-11-18T05:26:26;305.13;;;106.97;;
26375;SDS011;30544;42.196;24.336;2022-11-18T05:28:52;444.00;;;177.77;;
26375;SDS011;30544;42.196;24.336;2022-11-18T05:31:19;857.65;;;210.50;;
26375;SDS011;30544;42.196;24.336;2022-11-18T05:33:46;495.38;;;134.95;;
26375;SDS011;30544;42.196;24.336;2022-11-18T05:36:14;482.33;;;136.20;;
26375;SDS011;30544;42.196;24.336;2022-11-18T05:38:42;312.40;;;98.32;;
26375;SDS011;30544;42.196;24.336;2022-11-18T05:41:10;283.42;;;86.78;;
26375;SDS011;30544;42.196;24.336;2022-11-18T05:43:58;334.08;;;101.07;;
26375;SDS011;30544;42.196;24.336;2022-11-18T05:46:24;295.95;;;84.53;;
26375;SDS011;30544;42.196;24.336;2022-11-18T05:48:52;221.27;;;65.90;;
26375;SDS011;30544;42.196;24.336;2022-11-18T05:51:18;361.60;;;103.25;;
26375;SDS011;30544;42.196;24.336;2022-11-18T05:53:46;137.48;;;58.15;;
26375;SDS011;30544;42.196;24.336;2022-11-18T05:56:17;320.90;;;92.20;;
26375;SDS011;30544;42.196;24.336;2022-11-18T05:58:47;326.50;;;78.20;;
26375;SDS011;30544;42.196;24.336;2022-11-18T06:01:14;117.35;;;43.45;;
26375;SDS011;30544;42.196;24.336;2022-11-18T06:03:44;197.27;;;60.05;;
26375;SDS011;30544;42.196;24.336;2022-11-18T06:06:11;283.63;;;60.15;;
26375;SDS011;30544;42.196;24.336;2022-11-18T06:08:43;764.42;;;114.43;;
26375;SDS011;30544;42.196;24.336;2022-11-18T06:11:13;519.65;;;86.47;;
26375;SDS011;30544;42.196;24.336;2022-11-18T06:13:45;388.02;;;72.82;;
26375;SDS011;30544;42.196;24.336;2022-11-18T06:16:15;75.93;;;39.10;;
26375;SDS011;30544;42.196;24.336;2022-11-18T06:18:43;336.10;;;58.60;;
26375;SDS011;30544;42.196;24.336;2022-11-18T06:21:10;395.92;;;75.40;;
26375;SDS011;30544;42.196;24.336;2022-11-18T06:23:37;215.07;;;60.40;;
26375;SDS011;30544;42.196;24.336;2022-11-18T06:26:06;316.30;;;70.97;;
26375;SDS011;30544;42.196;24.336;2022-11-18T06:28:37;479.48;;;84.90;;
26375;SDS011;30544;42.196;24.336;2022-11-18T06:31:05;291.30;;;63.47;;
26375;SDS011;30544;42.196;24.336;2022-11-18T06:33:32;368.10;;;77.95;;
26375;SDS011;30544;42.196;24.336;2022-11-18T06:35:59;89.88;;;47.45;;
26375;SDS011;30544;42.196;24.336;2022-11-18T06:38:26;213.13;;;79.75;;
26375;SDS011;30544;42.196;24.336;2022-11-18T06:40:57;81.32;;;42.78;;
26375;SDS011;30544;42.196;24.336;2022-11-18T06:43:24;96.85;;;45.60;;
26375;SDS011;30544;42.196;24.336;2022-11-18T06:48:55;77.20;;;40.05;;
26375;SDS011;30544;42.196;24.336;2022-11-18T06:51:23;97.07;;;47.65;;
26375;SDS011;30544;42.196;24.336;2022-11-18T06:53:50;88.22;;;42.55;;
26375;SDS011;30544;42.196;24.336;2022-11-18T06:56:17;103.45;;;45.25;;
26375;SDS011;30544;42.196;24.336;2022-11-18T06:58:45;89.95;;;40.75;;
26375;SDS011;30544;42.196;24.336;2022-11-18T07:01:15;99.03;;;48.33;;
26375;SDS011;30544;42.196;24.336;2022-11-18T07:03:43;85.53;;;48.42;;
26375;SDS011;30544;42.196;24.336;2022-11-18T07:06:11;113.43;;;59.72;;
26375;SDS011;30544;42.196;24.336;2022-11-18T07:08:40;102.40;;;54.08;;
26375;SDS011;30544;42.196;24.336;2022-11-18T07:11:07;123.03;;;58.67;;
26375;SDS011;30544;42.196;24.336;2022-11-18T07:13:35;150.85;;;48.80;;
26375;SDS011;30544;42.196;24.336;2022-11-18T07:16:03;109.20;;;41.17;;
26375;SDS011;30544;42.196;24.336;2022-11-18T07:18:32;78.45;;;38.33;;
26375;SDS011;30544;42.196;24.336;2022-11-18T07:21:04;144.80;;;52.45;;
26375;SDS011;30544;42.196;24.336;2022-11-18T07:23:33;122.50;;;47.83;;
26375;SDS011;30544;42.196;24.336;2022-11-18T07:26:00;117.43;;;55.95;;
26375;SDS011;30544;42.196;24.336;2022-11-18T07:28:28;254.52;;;97.53;;
26375;SDS011;30544;42.196;24.336;2022-11-18T07:30:59;162.43;;;73.03;;
26375;SDS011;30544;42.196;24.336;2022-11-18T07:33:26;114.55;;;54.65;;
26375;SDS011;30544;42.196;24.336;2022-11-18T07:35:54;140.20;;;62.33;;
26375;SDS011;30544;42.196;24.336;2022-11-18T07:38:21;166.93;;;63.90;;
26375;SDS011;30544;42.196;24.336;2022-11-18T07:40:47;212.65;;;78.13;;
26375;SDS011;30544;42.196;24.336;2022-11-18T07:43:14;303.70;;;94.63;;
26375;SDS011;30544;42.196;24.336;2022-11-18T07:45:41;231.73;;;80.47;;
26375;SDS011;30544;42.196;24.336;2022-11-18T07:48:07;356.48;;;95.80;;
26375;SDS011;30544;42.196;24.336;2022-11-18T07:50:34;148.38;;;60.67;;
26375;SDS011;30544;42.196;24.336;2022-11-18T07:53:02;247.15;;;70.18;;
26375;SDS011;30544;42.196;24.336;2022-11-18T07:55:29;146.65;;;59.15;;
26375;SDS011;30544;42.196;24.336;2022-11-18T07:57:56;274.05;;;68.90;;
26375;SDS011;30544;42.196;24.336;2022-11-18T08:00:22;320.42;;;79.03;;
26375;SDS011;30544;42.196;24.336;2022-11-18T08:02:49;356.77;;;86.05;;
26375;SDS011;30544;42.196;24.336;2022-11-18T08:05:16;245.90;;;74.85;;
26375;SDS011;30544;42.196;24.336;2022-11-18T08:07:43;437.35;;;94.30;;
26375;SDS011;30544;42.196;24.336;2022-11-18T08:10:14;217.15;;;71.10;;
26375;SDS011;30544;42.196;24.336;2022-11-18T08:12:41;211.98;;;71.95;;
26375;SDS011;30544;42.196;24.336;2022-11-18T08:15:08;316.35;;;82.00;;
26375;SDS011;30544;42.196;24.336;2022-11-18T08:17:35;227.70;;;75.13;;
26375;SDS011;30544;42.196;24.336;2022-11-18T08:20:06;362.90;;;85.25;;
26375;SDS011;30544;42.196;24.336;2022-11-18T08:22:33;138.15;;;60.85;;
26375;SDS011;30544;42.196;24.336;2022-11-18T08:24:59;185.70;;;71.60;;
26375;SDS011;30544;42.196;24.336;2022-11-18T08:27:27;367.15;;;108.53;;
26375;SDS011;30544;42.196;24.336;2022-11-18T08:29:54;194.80;;;78.25;;
26375;SDS011;30544;42.196;24.336;2022-11-18T08:32:21;244.48;;;90.70;;
26375;SDS011;30544;42.196;24.336;2022-11-18T08:34:48;189.40;;;76.80;;
26375;SDS011;30544;42.196;24.336;2022-11-18T08:37:15;191.80;;;73.30;;
26375;SDS011;30544;42.196;24.336;2022-11-18T08:39:42;160.57;;;70.47;;
26375;SDS011;30544;42.196;24.336;2022-11-18T08:42:09;197.02;;;83.20;;
26375;SDS011;30544;42.196;24.336;2022-11-18T08:44:37;193.00;;;76.35;;
26375;SDS011;30544;42.196;24.336;2022-11-18T08:47:04;188.45;;;76.22;;
26375;SDS011;30544;42.196;24.336;2022-11-18T08:49:31;190.30;;;76.10;;
26375;SDS011;30544;42.196;24.336;2022-11-18T08:52:00;218.05;;;85.65;;
26375;SDS011;30544;42.196;24.336;2022-11-18T08:54:32;150.23;;;65.70;;
26375;SDS011;30544;42.196;24.336;2022-11-18T08:56:59;185.20;;;76.22;;
26375;SDS011;30544;42.196;24.336;2022-11-18T08:59:26;137.13;;;62.72;;
26375;SDS011;30544;42.196;24.336;2022-11-18T09:02:00;173.20;;;72.28;;
26375;SDS011;30544;42.196;24.336;2022-11-18T09:04:27;168.80;;;71.30;;
26375;SDS011;30544;42.196;24.336;2022-11-18T09:06:54;158.88;;;68.32;;
26375;SDS011;30544;42.196;24.336;2022-11-18T09:09:21;166.05;;;70.72;;
26375;SDS011;30544;42.196;24.336;2022-11-18T09:11:47;165.27;;;75.57;;
26375;SDS011;30544;42.196;24.336;2022-11-18T09:14:14;134.23;;;65.32;;
26375;SDS011;30544;42.196;24.336;2022-11-18T09:16:42;151.57;;;67.75;;
26375;SDS011;30544;42.196;24.336;2022-11-18T09:19:11;140.73;;;68.63;;
26375;SDS011;30544;42.196;24.336;2022-11-18T09:21:39;124.88;;;68.10;;
26375;SDS011;30544;42.196;24.336;2022-11-18T09:24:06;112.13;;;56.20;;
26375;SDS011;30544;42.196;24.336;2022-11-18T09:26:35;123.45;;;62.70;;
26375;SDS011;30544;42.196;24.336;2022-11-18T09:29:02;117.80;;;59.50;;
26375;SDS011;30544;42.196;24.336;2022-11-18T09:31:29;105.55;;;52.50;;
26375;SDS011;30544;42.196;24.336;2022-11-18T09:33:57;111.60;;;55.40;;
26375;SDS011;30544;42.196;24.336;2022-11-18T09:36:25;82.03;;;45.08;;
26375;SDS011;30544;42.196;24.336;2022-11-18T09:38:53;93.07;;;55.92;;
26375;SDS011;30544;42.196;24.336;2022-11-18T09:41:24;92.03;;;52.20;;
26375;SDS011;30544;42.196;24.336;2022-11-18T09:44:04;99.25;;;53.75;;
26375;SDS011;30544;42.196;24.336;2022-11-18T09:46:41;88.15;;;51.65;;
26375;SDS011;30544;42.196;24.336;2022-11-18T09:49:20;89.85;;;51.33;;
26375;SDS011;30544;42.196;24.336;2022-11-18T09:51:54;89.25;;;53.38;;
26375;SDS011;30544;42.196;24.336;2022-11-18T09:54:23;89.90;;;51.75;;
26375;SDS011;30544;42.196;24.336;2022-11-18T09:56:52;103.35;;;56.35;;
26375;SDS011;30544;42.196;24.336;2022-11-18T09:59:21;109.95;;;57.72;;
26375;SDS011;30544;42.196;24.336;2022-11-18T10:01:55;90.13;;;55.25;;
26375;SDS011;30544;42.196;24.336;2022-11-18T10:04:26;99.00;;;54.28;;
26375;SDS011;30544;42.196;24.336;2022-11-18T10:06:55;109.43;;;57.70;;
26375;SDS011;30544;42.196;24.336;2022-11-18T10:09:26;111.03;;;56.28;;
26375;SDS011;30544;42.196;24.336;2022-11-18T10:12:08;104.93;;;56.60;;
26375;SDS011;30544;42.196;24.336;2022-11-18T10:14:54;122.63;;;60.92;;
26375;SDS011;30544;42.196;24.336;2022-11-18T10:17:36;108.25;;;59.42;;
26375;SDS011;30544;42.196;24.336;2022-11-18T10:20:23;100.38;;;56.88;;
26375;SDS011;30544;42.196;24.336;2022-11-18T10:23:02;98.97;;;55.45;;
26375;SDS011;30544;42.196;24.336;2022-11-18T10:25:33;81.15;;;48.80;;
26375;SDS011;30544;42.196;24.336;2022-11-18T10:28:01;90.47;;;51.47;;
26375;SDS011;30544;42.196;24.336;2022-11-18T10:30:41;98.28;;;50.97;;
26375;SDS011;30544;42.196;24.336;2022-11-18T10:33:16;84.78;;;49.78;;
26375;SDS011;30544;42.196;24.336;2022-11-18T10:35:49;93.90;;;50.90;;
26375;SDS011;30544;42.196;24.336;2022-11-18T10:38:19;94.70;;;51.05;;
26375;SDS011;30544;42.196;24.336;2022-11-18T10:40:54;89.90;;;49.85;;
26375;SDS011;30544;42.196;24.336;2022-11-18T10:46:14;84.18;;;46.35;;
26375;SDS011;30544;42.196;24.336;2022-11-18T10:48:42;105.28;;;45.95;;
26375;SDS011;30544;42.196;24.336;2022-11-18T10:51:19;80.65;;;48.15;;
26375;SDS011;30544;42.196;24.336;2022-11-18T10:53:48;86.80;;;49.85;;
26375;SDS011;30544;42.196;24.336;2022-11-18T10:56:15;88.82;;;51.90;;
26375;SDS011;30544;42.196;24.336;2022-11-18T10:58:43;82.70;;;48.90;;
26375;SDS011;30544;42.196;24.336;2022-11-18T11:01:13;119.55;;;52.10;;
26375;SDS011;30544;42.196;24.336;2022-11-18T11:03:51;80.28;;;47.30;;
26375;SDS011;30544;42.196;24.336;2022-11-18T11:06:30;80.70;;;50.33;;
26375;SDS011;30544;42.196;24.336;2022-11-18T11:09:02;83.90;;;51.47;;
26375;SDS011;30544;42.196;24.336;2022-11-18T11:11:34;85.03;;;51.30;;
26375;SDS011;30544;42.196;24.336;2022-11-18T11:14:05;99.32;;;59.60;;
26375;SDS011;30544;42.196;24.336;2022-11-18T11:16:41;91.20;;;53.70;;
26375;SDS011;30544;42.196;24.336;2022-11-18T11:19:17;97.07;;;60.00;;
26375;SDS011;30544;42.196;24.336;2022-11-18T11:21:47;120.75;;;66.05;;
26375;SDS011;30544;42.196;24.336;2022-11-18T11:24:15;91.45;;;56.83;;
26375;SDS011;30544;42.196;24.336;2022-11-18T11:26:45;116.85;;;68.50;;
26375;SDS011;30544;42.196;24.336;2022-11-18T11:29:22;125.45;;;70.93;;
26375;SDS011;30544;42.196;24.336;2022-11-18T11:32:04;105.43;;;63.15;;
26375;SDS011;30544;42.196;24.336;2022-11-18T11:34:39;108.17;;;66.23;;
26375;SDS011;30544;42.196;24.336;2022-11-18T11:37:13;132.10;;;70.53;;
26375;SDS011;30544;42.196;24.336;2022-11-18T11:39:58;137.07;;;78.38;;
26375;SDS011;30544;42.196;24.336;2022-11-18T11:42:35;174.50;;;95.80;;
26375;SDS011;30544;42.196;24.336;2022-11-18T11:45:16;177.38;;;96.50;;
26375;SDS011;30544;42.196;24.336;2022-11-18T11:47:48;134.50;;;78.32;;
26375;SDS011;30544;42.196;24.336;2022-11-18T11:50:36;116.32;;;66.80;;
26375;SDS011;30544;42.196;24.336;2022-11-18T11:53:20;130.93;;;71.05;;
26375;SDS011;30544;42.196;24.336;2022-11-18T11:56:10;101.63;;;61.03;;
26375;SDS011;30544;42.196;24.336;2022-11-18T11:58:47;110.75;;;58.13;;
26375;SDS011;30544;42.196;24.336;2022-11-18T12:01:29;104.07;;;59.05;;
26375;SDS011;30544;42.196;24.336;2022-11-18T12:04:03;128.70;;;67.93;;
26375;SDS011;30544;42.196;24.336;2022-11-18T12:06:43;118.28;;;65.72;;
26375;SDS011;30544;42.196;24.336;2022-11-18T12:09:12;115.75;;;67.50;;
26375;SDS011;30544;42.196;24.336;2022-11-18T12:11:45;110.22;;;66.45;;
26375;SDS011;30544;42.196;24.336;2022-11-18T12:14:21;109.93;;;63.47;;
26375;SDS011;30544;42.196;24.336;2022-11-18T12:16:58;108.18;;;60.38;;
26375;SDS011;30544;42.196;24.336;2022-11-18T12:22:02;79.38;;;49.50;;
26375;SDS011;30544;42.196;24.336;2022-11-18T12:24:34;80.53;;;48.03;;
26375;SDS011;30544;42.196;24.336;2022-11-18T12:27:10;82.15;;;51.13;;
26375;SDS011;30544;42.196;24.336;2022-11-18T12:29:40;79.65;;;48.80;;
26375;SDS011;30544;42.196;24.336;2022-11-18T12:32:28;78.93;;;48.38;;
26375;SDS011;30544;42.196;24.336;2022-11-18T12:34:59;90.38;;;53.00;;
26375;SDS011;30544;42.196;24.336;2022-11-18T12:37:38;101.32;;;60.83;;
26375;SDS011;30544;42.196;24.336;2022-11-18T12:40:09;98.55;;;57.20;;
26375;SDS011;30544;42.196;24.336;2022-11-18T12:42:57;103.50;;;59.95;;
26375;SDS011;30544;42.196;24.336;2022-11-18T12:45:51;119.60;;;59.55;;
26375;SDS011;30544;42.196;24.336;2022-11-18T12:48:29;107.55;;;57.03;;
26375;SDS011;30544;42.196;24.336;2022-11-18T12:54:25;106.85;;;58.38;;
26375;SDS011;30544;42.196;24.336;2022-11-18T12:56:56;107.28;;;59.13;;
26375;SDS011;30544;42.196;24.336;2022-11-18T12:59:33;135.93;;;66.53;;
26375;SDS011;30544;42.196;24.336;2022-11-18T13:05:07;144.15;;;70.20;;
26375;SDS011;30544;42.196;24.336;2022-11-18T13:07:41;145.30;;;71.43;;
26375;SDS011;30544;42.196;24.336;2022-11-18T13:10:28;151.30;;;75.43;;
26375;SDS011;30544;42.196;24.336;2022-11-18T13:12:57;154.77;;;80.45;;
26375;SDS011;30544;42.196;24.336;2022-11-18T13:15:26;137.48;;;72.32;;
26375;SDS011;30544;42.196;24.336;2022-11-18T13:18:12;128.38;;;67.57;;
26375;SDS011;30544;42.196;24.336;2022-11-18T13:20:41;157.77;;;66.53;;
26375;SDS011;30544;42.196;24.336;2022-11-18T13:23:26;133.15;;;64.45;;
26375;SDS011;30544;42.196;24.336;2022-11-18T13:26:14;112.18;;;60.08;;
26375;SDS011;30544;42.196;24.336;2022-11-18T13:28:53;127.25;;;66.38;;
26375;SDS011;30544;42.196;24.336;2022-11-18T13:31:36;122.25;;;66.75;;
26375;SDS011;30544;42.196;24.336;2022-11-18T13:34:11;149.55;;;71.75;;
26375;SDS011;30544;42.196;24.336;2022-11-18T13:36:44;173.00;;;81.55;;
26375;SDS011;30544;42.196;24.336;2022-11-18T13:39:17;177.85;;;82.20;;
26375;SDS011;30544;42.196;24.336;2022-11-18T13:41:56;183.18;;;87.97;;
26375;SDS011;30544;42.196;24.336;2022-11-18T13:44:28;197.70;;;90.85;;
26375;SDS011;30544;42.196;24.336;2022-11-18T13:46:58;152.15;;;79.03;;
26375;SDS011;30544;42.196;24.336;2022-11-18T13:49:38;181.52;;;88.10;;
26375;SDS011;30544;42.196;24.336;2022-11-18T13:52:10;184.93;;;87.50;;
26375;SDS011;30544;42.196;24.336;2022-11-18T13:54:40;155.95;;;79.82;;
26375;SDS011;30544;42.196;24.336;2022-11-18T13:57:12;170.30;;;85.07;;
26375;SDS011;30544;42.196;24.336;2022-11-18T13:59:45;174.00;;;83.93;;
26375;SDS011;30544;42.196;24.336;2022-11-18T14:02:17;175.02;;;82.40;;
26375;SDS011;30544;42.196;24.336;2022-11-18T14:04:46;175.10;;;83.25;;
26375;SDS011;30544;42.196;24.336;2022-11-18T14:07:29;162.48;;;82.22;;
26375;SDS011;30544;42.196;24.336;2022-11-18T14:09:58;173.32;;;85.05;;
26375;SDS011;30544;42.196;24.336;2022-11-18T14:12:29;209.65;;;97.78;;
26375;SDS011;30544;42.196;24.336;2022-11-18T14:17:51;200.80;;;90.72;;
26375;SDS011;30544;42.196;24.336;2022-11-18T14:20:20;218.15;;;96.60;;
26375;SDS011;30544;42.196;24.336;2022-11-18T14:22:51;204.80;;;95.25;;
26375;SDS011;30544;42.196;24.336;2022-11-18T14:25:21;200.93;;;87.28;;
26375;SDS011;30544;42.196;24.336;2022-11-18T14:27:52;193.85;;;89.40;;
26375;SDS011;30544;42.196;24.336;2022-11-18T14:30:24;210.05;;;96.13;;
26375;SDS011;30544;42.196;24.336;2022-11-18T14:33:06;201.60;;;95.45;;
26375;SDS011;30544;42.196;24.336;2022-11-18T14:35:35;188.57;;;89.93;;
26375;SDS011;30544;42.196;24.336;2022-11-18T14:38:07;207.02;;;93.40;;
26375;SDS011;30544;42.196;24.336;2022-11-18T14:40:37;243.48;;;101.70;;
26375;SDS011;30544;42.196;24.336;2022-11-18T14:43:04;209.68;;;98.15;;